Metar z połowy godziny Komunikat METAR ze strony awiacja.imgw.pl Metar G00 EPPO METAR EPPO 062230Z 25007KT 6000 -DZ OVC003 02/02 Q1010 =